KRKP

Aransas Co Airport

Rockport, Texas, USA
METAR KRKP 182203Z AUTO 14008KT 10SM FEW008 SCT044 28/24 A2982 RMK AO2 T02780244 TSNO
Observed Flight Rules
Jun-18 @ 22:03 UTC (45 minutes ago) Visual Flight Rules
Wind Visibility Clouds
140° at 8 knots 10 miles
  • Few at 800' AGL
  • Scattered at 4,400' AGL
Temperatures Readings
Current 28°C / 82°F
Dewpoint 24°C / 75°F
Humidity 79%
Altimeter 29.82" Hg
Pressure 1010 hPa
Elevation 6
METAR KRKP 182203Z AUTO 14008KT 10SM FEW008 SCT044 28/24 A2982 RMK AO2 T02780244 TSNO
Observed Flight Rules
Jun-18 @ 22:03 UTC
(45 minutes ago)
VFR
Wind Visibility
140° at 8 knots 10 miles
Clouds
  • Few at 800' AGL
  • Scattered at 4,400' AGL
Temperature Dewpoint
28°C / 82°F 24°C / 75°F
Humidity Altimeter Pressure
79% 29.82" Hg 1010 hPa